Huvudsida
METAR-TAF:

METAR-TAF

Flygplatser :

Åre Östersund Airport

Östersund-Frösön, Sverige

latitud: 63-11N, longitud: 014-30E, höjd: 376 m

Aktuellt väderrapport

Denna rapport gjordes för 33 minuter sedan, klockan 07:20 UTC
Vind 6 kt från väst/sydväst
Temperatur 5°C
Fuktighet 87%
Tryck 1013 hPa
Sikt 10 km eller mer
Få moln på en höjd av 2700 ft
Brutna moln på en höjd av 3700 ft

METAR: ESNZ 180720Z 24006KT 9999 FEW027 BKN037 05/03 Q1013 RERA

Tid: 09:53 (07:53 UTC)

Väderprognos

Denna rapport gjordes för 2 timmar och 23 minuter sedan, klockan 05:30 UTC
Prognos gäller från 18 kl. 06 UTC till 18 kl. 15 UTC
Vind 12 kt från väst
Sikt 10 km eller mer
Inga moln under 1 500 m eller inga cumulonimbus

TAF: ESNZ 180530Z 1806/1815 27012KT CAVOK

Aktuella väderrapporter och prognoser från 4000 flygplatser (METAR- och TAF-rapporter).

De tillgängliga stationerna syns som gula och röda prickar på kartan.

För musen över prickarna för att se namnen på stationerna.

Klicka sedan för att få väderrapporter och prognoser.

För att ändra kartan: Klicka på de gröna knapparna med ett svart kors på för att zooma in; den gröna knappen med ett streck på för att zooma ut; eller på de gröna pilarna för angränsande kartor.


METAR-TAF: